Saint John, WA

5:07 AM PDT on June 03, 2015 (GMT -0700)
St. John Area | | Change Station
CLOSE
Current Station
Personal Weather Station
Location: Thornton, WA
Elevation: 2382 ft
Nearby Weather Stations

Elev 2382 ft 47.07 °N, 117.43 °W | Updated 6 minutes ago

Mostly Cloudy
Mostly Cloudy
49.0 °F
Feels Like 47 °F
N
5.0
Wind Variable Wind from SSE
Gusts 7.0 mph

Today
High -- | Low -- °F
--% Chance of Precip.
Yesterday
High -- | Low -- °F
Precip. -- in
4:57 AM 8:39 PM
Full, 99% visible
Pressure 30.01 in
Visibility 10.0 miles
Clouds Overcast 8000 ft
Windchill 47 °F
Dew Point 45 °F
Humidity 86%
Rainfall 0.00 in
Snow Depth Not available.
UV 0.0 out of 12
Pollen 6.50 out of 12
Air Quality Not available.
Flu Activity Sporadic
METAR KPUW 031153Z AUTO 26003KT 10SM OVC080 11/06 A3002 RMK AO2 SLP161 70004 T01110061 10117 20083 55000

More Conditions Fewer Conditions

Pressure 30.01 in
Visibility 10.0 miles
Clouds Overcast 8000 ft
Windchill 47 °F
Dew Point 45 °F
Humidity 86%
Rainfall 0.00 in
Snow Depth Not available.
UV 0.0 out of 12
Pollen 6.50 out of 12
Air Quality Not available.
Flu Activity Sporadic
METAR KPUW 031153Z AUTO 26003KT 10SM OVC080 11/06 A3002 RMK AO2 SLP161 70004 T01110061 10117 20083 55000

More Conditions Fewer Conditions

10-Day Weather Forecast

×

Almanac

Astronomy

Jun. 03, 2015 Rise Set
Actual Time
Civil Twilight
Nautical Twilight
Astronomical Twilight
Moon
Length of Visible Light
Length of Day
Tomorrow will be .
, % of the Moon is Illuminated

Today's Extremes

State Highs State Lows

Community

WunderPhotos

Upload Photos

1,826,205 photos uploaded!

WunderBlogs® & News

Nearby

Air Quality

  Air Quality AQ Index Pollutant
Not available.

Snow Depth

Station Depth Elevation

Earthquake Activity

City Distance Mag. Time & Date
Minimum magnitude displayed is 2.5.

Coastal Water Temperatures

Place Temperature

Stations

Nearby Weather Stations

Station Location Temp. Windchill Dew Point Humidity Wind Precip. Elev Updated Type